createdAt,value
2019-02-04T00:01:46.908Z,16.45
2019-02-04T00:04:15.505Z,17.25
2019-02-04T00:06:44.078Z,18.57
2019-02-04T00:09:12.690Z,24.90
2019-02-04T00:11:41.248Z,18.62
2019-02-04T00:14:10.236Z,16.20
2019-02-04T00:16:40.864Z,17.23
2019-02-04T00:19:09.179Z,13.70
2019-02-04T00:21:37.742Z,18.57
2019-02-04T00:24:06.374Z,17.05
2019-02-04T00:26:34.935Z,20.48
2019-02-04T00:29:03.773Z,27.82
2019-02-04T00:31:32.429Z,26.20
2019-02-04T00:34:00.992Z,27.87
2019-02-04T00:36:29.675Z,25.25
2019-02-04T00:38:58.243Z,28.02
2019-02-04T00:41:27.146Z,29.92
2019-02-04T00:43:55.983Z,30.08
2019-02-04T00:46:24.776Z,27.50
2019-02-04T00:48:53.351Z,27.13
2019-02-04T00:51:22.153Z,21.48
2019-02-04T00:53:50.718Z,20.90
2019-02-04T00:56:19.313Z,25.48
2019-02-04T00:58:47.876Z,28.95
2019-02-04T01:01:16.456Z,22.05
2019-02-04T01:03:45.267Z,20.62
2019-02-04T01:06:13.836Z,19.07
2019-02-04T01:08:42.407Z,18.37
2019-02-04T01:11:10.981Z,37.48
2019-02-04T01:13:39.541Z,34.95
2019-02-04T01:16:08.682Z,36.70
2019-02-04T01:18:37.339Z,23.87
2019-02-04T01:21:05.998Z,22.75
2019-02-04T01:23:34.580Z,27.77
2019-02-04T01:26:03.220Z,36.13
2019-02-04T01:28:34.889Z,33.25
2019-02-04T01:31:03.454Z,26.37
2019-02-04T01:33:32.012Z,30.35
2019-02-04T01:36:00.814Z,38.55
2019-02-04T01:38:29.380Z,30.82
2019-02-04T01:40:57.948Z,46.02
2019-02-04T01:43:26.690Z,49.83
2019-02-04T01:45:55.566Z,38.92
2019-02-04T01:48:24.811Z,44.20
2019-02-04T01:50:53.371Z,34.80
2019-02-04T01:53:21.936Z,37.28
2019-02-04T01:55:50.737Z,36.17
2019-02-04T01:58:20.798Z,36.20
2019-02-04T02:00:49.430Z,34.30
2019-02-04T02:03:17.996Z,37.98
2019-02-04T02:05:46.812Z,34.98
2019-02-04T02:08:15.391Z,31.73
2019-02-04T02:10:44.023Z,22.82
2019-02-04T02:13:12.871Z,22.40
2019-02-04T02:15:41.444Z,23.12
2019-02-04T02:18:10.043Z,22.20
2019-02-04T02:20:38.603Z,24.00
2019-02-04T02:23:07.163Z,27.65
2019-02-04T02:25:35.729Z,26.85
2019-02-04T02:28:04.973Z,28.07
2019-02-04T02:30:33.871Z,33.40
2019-02-04T02:33:02.462Z,35.10
2019-02-04T02:35:31.083Z,36.45
2019-02-04T02:37:59.739Z,42.53
2019-02-04T02:40:30.679Z,40.15
2019-02-04T02:42:59.712Z,37.60
2019-02-04T02:45:28.587Z,40.10
2019-02-04T02:47:57.219Z,35.73
2019-02-04T02:50:25.783Z,37.78
2019-02-04T02:52:54.735Z,41.18
2019-02-04T02:55:23.403Z,45.35
2019-02-04T02:57:52.288Z,38.95
2019-02-04T03:00:22.798Z,37.73
2019-02-04T03:02:51.433Z,36.13
2019-02-04T03:05:20.074Z,36.23
2019-02-04T03:07:48.651Z,38.92
2019-02-04T03:10:19.866Z,40.50
2019-02-04T03:12:48.704Z,39.45
2019-02-04T03:15:17.363Z,31.73
2019-02-04T03:17:51.958Z,29.75
2019-02-04T03:20:16.831Z,28.92
2019-02-04T03:22:45.629Z,31.50
2019-02-04T03:25:14.286Z,29.37
2019-02-04T03:27:43.369Z,30.45
2019-02-04T03:30:16.078Z,29.40
2019-02-04T03:32:44.652Z,25.02
2019-02-04T03:35:13.393Z,23.27
2019-02-04T03:37:42.040Z,25.60
2019-02-04T03:40:12.398Z,30.65
2019-02-04T03:42:40.965Z,27.10
2019-02-04T03:45:10.273Z,28.87
2019-02-04T03:47:39.096Z,23.77
2019-02-04T03:50:08.962Z,25.25
2019-02-04T03:52:37.611Z,25.95
2019-02-04T03:55:07.745Z,25.08
2019-02-04T03:57:36.468Z,28.17
2019-02-04T04:00:08.476Z,28.05
2019-02-04T04:02:37.066Z,26.60
2019-02-04T04:05:06.340Z,26.62
2019-02-04T04:07:34.926Z,27.32
2019-02-04T04:10:04.022Z,32.53
2019-02-04T04:12:32.838Z,35.05
2019-02-04T04:15:01.415Z,29.55
2019-02-04T04:17:29.981Z,24.77
2019-02-04T04:19:58.579Z,26.65
2019-02-04T04:22:27.128Z,30.12
2019-02-04T04:24:56.079Z,26.30
2019-02-04T04:27:24.646Z,25.95
2019-02-04T04:29:53.462Z,34.18
2019-02-04T04:32:22.042Z,31.12
2019-02-04T04:34:50.607Z,21.77
2019-02-04T04:37:19.184Z,24.92
2019-02-04T04:39:48.029Z,25.10
2019-02-04T04:42:16.625Z,22.73
2019-02-04T04:44:45.184Z,21.12
2019-02-04T04:47:13.842Z,22.58
2019-02-04T04:49:43.089Z,22.55
2019-02-04T04:52:11.696Z,24.43
2019-02-04T04:54:40.545Z,18.75
2019-02-04T04:57:09.109Z,19.00
2019-02-04T04:59:37.682Z,20.05
2019-02-04T05:02:06.330Z,22.17
2019-02-04T05:04:34.913Z,20.52
2019-02-04T05:07:03.497Z,26.95
2019-02-04T05:09:32.329Z,20.05
2019-02-04T05:12:00.966Z,22.17
2019-02-04T05:14:29.940Z,23.22
2019-02-04T05:16:58.503Z,19.27
2019-02-04T05:19:27.144Z,19.92
2019-02-04T05:21:55.758Z,26.10
2019-02-04T05:24:24.591Z,23.65
2019-02-04T05:26:53.147Z,18.70
2019-02-04T05:29:21.743Z,20.08
2019-02-04T05:31:50.507Z,29.60
2019-02-04T05:34:19.077Z,21.95
2019-02-04T05:36:47.696Z,24.57
2019-02-04T05:39:16.388Z,18.25
2019-02-04T05:41:45.067Z,17.00
2019-02-04T05:44:13.636Z,17.35
2019-02-04T05:46:42.223Z,17.30
2019-02-04T05:49:10.803Z,15.32
2019-02-04T05:51:39.384Z,13.95
2019-02-04T05:54:07.972Z,15.63
2019-02-04T05:56:36.552Z,16.35
2019-02-04T05:59:05.285Z,13.13
2019-02-04T06:01:34.390Z,13.83
2019-02-04T06:04:03.459Z,17.10
2019-02-04T06:06:32.360Z,15.98
2019-02-04T06:09:01.341Z,19.73
2019-02-04T06:11:30.012Z,19.60
2019-02-04T06:13:58.763Z,19.65
2019-02-04T06:16:27.436Z,19.20
2019-02-04T06:19:01.072Z,14.85
2019-02-04T06:21:26.529Z,19.55
2019-02-04T06:23:55.225Z,19.35
2019-02-04T06:26:24.148Z,21.35
2019-02-04T06:28:52.787Z,17.73
2019-02-04T06:31:21.642Z,18.30
2019-02-04T06:33:50.312Z,17.67
2019-02-04T06:36:19.361Z,18.15
2019-02-04T06:38:47.990Z,21.25
2019-02-04T06:41:16.599Z,18.17
2019-02-04T06:43:45.538Z,19.62
2019-02-04T06:46:14.131Z,23.05
2019-02-04T06:48:42.751Z,16.02
2019-02-04T06:51:11.673Z,22.37
2019-02-04T06:53:40.312Z,16.55
2019-02-04T06:56:09.315Z,14.90
2019-02-04T06:58:38.160Z,13.30
2019-02-04T07:01:06.913Z,12.03
2019-02-04T07:03:35.812Z,15.05
2019-02-04T07:06:04.447Z,13.25
2019-02-04T07:08:33.281Z,14.23
2019-02-04T07:11:02.390Z,14.43
2019-02-04T07:13:30.985Z,11.40
2019-02-04T07:15:59.652Z,16.75
2019-02-04T07:18:28.539Z,13.28
2019-02-04T07:20:57.208Z,11.35
2019-02-04T07:23:25.981Z,8.35
2019-02-04T07:25:54.737Z,14.25
2019-02-04T07:28:23.416Z,10.32
2019-02-04T07:30:52.136Z,12.53
2019-02-04T07:33:20.830Z,19.98
2019-02-04T07:35:49.557Z,12.53
2019-02-04T07:38:18.279Z,11.20
2019-02-04T07:40:47.038Z,15.68
2019-02-04T07:43:16.121Z,14.47
2019-02-04T07:45:44.720Z,12.20
2019-02-04T07:48:13.427Z,11.50
2019-02-04T07:50:42.119Z,11.43
2019-02-04T07:53:11.040Z,13.30
2019-02-04T07:55:39.707Z,10.90
2019-02-04T07:58:08.732Z,9.55
2019-02-04T08:00:37.454Z,10.18
2019-02-04T08:03:06.126Z,12.28
2019-02-04T08:05:34.823Z,7.10
2019-02-04T08:08:03.761Z,13.10
2019-02-04T08:10:32.726Z,10.90
2019-02-04T08:13:02.180Z,6.70
2019-02-04T08:15:33.370Z,7.80
2019-02-04T08:18:02.055Z,8.13
2019-02-04T08:20:30.736Z,7.83
2019-02-04T08:22:59.463Z,8.73
2019-02-04T08:25:28.275Z,7.45
2019-02-04T08:27:57.220Z,10.30
2019-02-04T08:30:28.009Z,9.70
2019-02-04T08:32:56.736Z,8.68
2019-02-04T08:35:25.746Z,6.65
2019-02-04T08:37:54.403Z,12.13
2019-02-04T08:40:23.147Z,6.75
2019-02-04T08:42:52.161Z,16.93
2019-02-04T08:45:20.818Z,12.03
2019-02-04T08:47:49.673Z,13.80
2019-02-04T08:50:19.178Z,6.30
2019-02-04T08:52:48.236Z,7.72
2019-02-04T08:55:17.006Z,7.42
2019-02-04T08:57:45.865Z,5.45
2019-02-04T09:00:16.864Z,8.38
2019-02-04T09:02:45.577Z,9.48
2019-02-04T09:05:14.620Z,6.70
2019-02-04T09:07:43.490Z,6.92
2019-02-04T09:10:18.277Z,7.17
2019-02-04T09:12:46.899Z,6.07
2019-02-04T09:15:16.437Z,4.60
2019-02-04T09:17:45.006Z,4.47
2019-02-04T09:20:15.122Z,5.70
2019-02-04T09:22:43.838Z,4.83
2019-02-04T09:25:13.243Z,6.30
2019-02-04T09:27:44.853Z,6.13
2019-02-04T09:30:23.717Z,8.65
2019-02-04T09:32:52.800Z,10.38
2019-02-04T09:35:21.797Z,8.43
2019-02-04T09:37:50.654Z,4.77
2019-02-04T09:40:44.852Z,7.20
2019-02-04T09:43:13.695Z,4.80
2019-02-04T09:45:43.749Z,4.07
2019-02-04T09:48:15.893Z,5.23
2019-02-04T09:50:44.816Z,5.17
2019-02-04T09:53:13.626Z,3.67
2019-02-04T09:55:42.269Z,6.13
2019-02-04T09:58:10.911Z,5.93
2019-02-04T10:00:39.541Z,7.73
2019-02-04T10:03:08.309Z,4.03
2019-02-04T10:05:37.250Z,4.90
2019-02-04T10:08:06.440Z,8.23
2019-02-04T10:10:35.138Z,6.90
2019-02-04T10:13:03.901Z,4.37
2019-02-04T10:15:34.607Z,4.67
2019-02-04T10:18:03.244Z,5.20
2019-02-04T10:20:34.537Z,4.10
2019-02-04T10:23:02.082Z,4.13
2019-02-04T10:25:32.757Z,4.43
2019-02-04T10:28:01.427Z,7.67
2019-02-04T10:30:30.146Z,4.80
2019-02-04T10:32:58.882Z,4.27
2019-02-04T10:35:27.649Z,4.70
2019-02-04T10:37:56.548Z,6.70
2019-02-04T10:40:25.853Z,6.13
2019-02-04T10:42:54.667Z,8.40
2019-02-04T10:45:23.363Z,5.27
2019-02-04T10:47:52.096Z,4.73
2019-02-04T10:50:46.103Z,5.80
2019-02-04T10:53:10.655Z,6.17
2019-02-04T10:55:39.499Z,10.03
2019-02-04T10:58:09.693Z,6.60
2019-02-04T11:00:39.402Z,7.53
2019-02-04T11:03:08.317Z,7.70
2019-02-04T11:05:37.544Z,5.37
2019-02-04T11:08:07.042Z,8.40
2019-02-04T11:10:36.736Z,4.97
2019-02-04T11:13:08.787Z,11.33
2019-02-04T11:15:37.624Z,12.17
2019-02-04T11:18:06.662Z,8.43
2019-02-04T11:20:35.773Z,8.60
2019-02-04T11:23:05.181Z,8.40
2019-02-04T11:25:33.762Z,7.07
2019-02-04T11:28:02.331Z,7.60
2019-02-04T11:30:33.253Z,7.23
2019-02-04T11:33:01.998Z,6.93
2019-02-04T11:35:30.805Z,8.70
2019-02-04T11:37:59.443Z,9.27
2019-02-04T11:40:33.566Z,6.00
2019-02-04T11:43:02.339Z,6.90
2019-02-04T11:45:31.400Z,5.93
2019-02-04T11:48:00.520Z,6.53
2019-02-04T11:50:29.307Z,5.27
2019-02-04T11:52:57.832Z,9.37
2019-02-04T11:55:26.781Z,8.23
2019-02-04T11:57:55.738Z,7.17
2019-02-04T12:00:25.982Z,9.20
2019-02-04T12:02:56.946Z,6.47
2019-02-04T12:05:25.532Z,9.70
2019-02-04T12:07:54.241Z,9.00
2019-02-04T12:10:29.154Z,8.10
2019-02-04T12:12:58.607Z,6.03
2019-02-04T12:15:27.270Z,7.57
2019-02-04T12:17:55.916Z,7.47
2019-02-04T12:20:24.487Z,6.40
2019-02-04T12:22:53.048Z,8.03
2019-02-04T12:25:23.203Z,7.40
2019-02-04T12:27:52.406Z,12.70
2019-02-04T12:30:23.579Z,6.90
2019-02-04T12:32:52.149Z,7.30
2019-02-04T12:35:20.908Z,8.60
2019-02-04T12:37:49.789Z,6.70
2019-02-04T12:40:18.701Z,6.03
2019-02-04T12:42:47.939Z,5.70
2019-02-04T12:45:25.887Z,12.33
2019-02-04T12:47:54.976Z,6.60
2019-02-04T12:50:24.141Z,7.37
2019-02-04T12:52:52.880Z,5.20
2019-02-04T12:55:22.947Z,8.10
2019-02-04T12:57:51.986Z,5.83
2019-02-04T13:00:22.935Z,6.63
2019-02-04T13:02:52.326Z,6.37
2019-02-04T13:05:24.257Z,6.70
2019-02-04T13:07:53.148Z,4.90
2019-02-04T13:10:22.614Z,5.87
2019-02-04T13:12:51.675Z,5.70
2019-02-04T13:15:21.112Z,4.93
2019-02-04T13:17:49.786Z,5.20
2019-02-04T13:20:20.727Z,7.60
2019-02-04T13:22:49.501Z,7.67
2019-02-04T13:25:20.663Z,7.23
2019-02-04T13:27:49.354Z,6.83
2019-02-04T13:30:20.453Z,6.10
2019-02-04T13:32:49.337Z,9.00
2019-02-04T13:35:18.444Z,7.70
2019-02-04T13:37:47.032Z,6.90
2019-02-04T13:40:18.688Z,6.73
2019-02-04T13:42:47.331Z,6.20
2019-02-04T13:45:17.614Z,7.30
2019-02-04T13:47:46.707Z,7.47
2019-02-04T13:50:16.199Z,8.50
2019-02-04T13:55:39.797Z,11.37
2019-02-04T13:58:08.643Z,8.30
2019-02-04T14:00:38.061Z,7.67
2019-02-04T14:03:09.585Z,7.17
2019-02-04T14:05:38.241Z,11.10
2019-02-04T14:08:07.246Z,6.93
2019-02-04T14:10:37.837Z,11.53
2019-02-04T14:13:06.901Z,6.67
2019-02-04T14:15:54.680Z,9.60
2019-02-04T14:18:26.489Z,8.50
2019-02-04T14:20:53.676Z,7.12
2019-02-04T14:23:22.502Z,6.42
2019-02-04T14:25:51.154Z,6.90
2019-02-04T14:28:20.248Z,9.43
2019-02-04T14:30:49.222Z,7.03
2019-02-04T14:33:17.816Z,9.13
2019-02-04T14:35:46.374Z,6.23
2019-02-04T14:38:14.945Z,7.78
2019-02-04T14:40:44.035Z,7.50
2019-02-04T14:43:24.922Z,5.53
2019-02-04T14:46:25.013Z,6.33
2019-02-04T14:49:35.188Z,7.20
2019-02-04T14:52:35.024Z,9.58
2019-02-04T14:55:39.257Z,7.40
2019-02-04T14:58:13.582Z,6.78
2019-02-04T15:01:19.337Z,8.03
2019-02-04T15:04:03.234Z,8.10
2019-02-04T15:07:10.318Z,9.40
2019-02-04T15:10:21.782Z,7.17
2019-02-04T15:13:15.021Z,8.60
2019-02-04T15:16:15.316Z,12.95
2019-02-04T15:19:31.412Z,7.03
2019-02-04T15:22:33.443Z,8.43
2019-02-04T15:25:20.145Z,8.10
2019-02-04T15:28:11.541Z,6.80
2019-02-04T15:31:15.326Z,15.05
2019-02-04T15:34:25.791Z,9.75
2019-02-04T15:37:13.875Z,8.10
2019-02-04T15:40:15.640Z,11.20
2019-02-04T15:43:20.047Z,12.40
2019-02-04T15:46:29.676Z,9.88
2019-02-04T15:49:32.995Z,8.30
2019-02-04T15:52:01.891Z,7.83
2019-02-04T15:54:30.697Z,10.38
2019-02-04T15:56:59.308Z,10.50
2019-02-04T15:59:28.262Z,10.68
2019-02-04T16:01:57.072Z,7.42
2019-02-04T16:04:31.044Z,12.18
2019-02-04T16:06:59.758Z,10.00
2019-02-04T16:09:28.682Z,8.15
2019-02-04T16:11:57.470Z,10.18
2019-02-04T16:14:26.930Z,11.40
2019-02-04T16:16:56.152Z,11.75
2019-02-04T16:19:24.894Z,13.80
2019-02-04T16:21:53.513Z,8.33
2019-02-04T16:24:22.235Z,8.33
2019-02-04T16:26:51.093Z,13.10
2019-02-04T16:29:19.633Z,9.53
2019-02-04T16:31:48.799Z,8.33
2019-02-04T16:34:17.572Z,13.50
2019-02-04T16:36:46.261Z,7.70
2019-02-04T16:39:14.957Z,8.20
2019-02-04T16:41:43.791Z,9.58
2019-02-04T16:44:13.449Z,8.33
2019-02-04T16:46:42.283Z,13.55
2019-02-04T16:49:10.982Z,8.18
2019-02-04T16:51:39.960Z,7.70
2019-02-04T16:54:08.553Z,8.48
2019-02-04T16:56:37.145Z,10.48
2019-02-04T16:59:05.829Z,7.22
2019-02-04T17:01:34.724Z,15.90
2019-02-04T17:04:03.336Z,9.00
2019-02-04T17:06:32.110Z,15.98
2019-02-04T17:09:02.301Z,7.35
2019-02-04T17:11:30.976Z,12.33
2019-02-04T17:13:59.611Z,11.75
2019-02-04T17:16:28.415Z,12.05
2019-02-04T17:18:57.019Z,8.70
2019-02-04T17:21:25.923Z,10.30
2019-02-04T17:23:54.524Z,12.63
2019-02-04T17:26:23.196Z,7.42
2019-02-04T17:28:51.830Z,9.33
2019-02-04T17:31:20.422Z,11.50
2019-02-04T17:33:49.382Z,15.63
2019-02-04T17:36:17.963Z,11.78
2019-02-04T17:38:46.548Z,14.68
2019-02-04T17:41:15.293Z,12.30
2019-02-04T17:43:43.820Z,12.33
2019-02-04T17:46:12.435Z,10.55
2019-02-04T17:48:41.269Z,9.65
2019-02-04T17:51:09.933Z,11.53
2019-02-04T17:53:38.505Z,15.68
2019-02-04T17:56:08.711Z,12.60
2019-02-04T17:58:37.364Z,13.00
2019-02-04T18:01:06.339Z,13.30
2019-02-04T18:03:35.143Z,13.68
2019-02-04T18:06:03.842Z,11.15
2019-02-04T18:08:32.431Z,11.83
2019-02-04T18:11:01.002Z,12.40
2019-02-04T18:13:29.853Z,13.43
2019-02-04T18:15:58.456Z,12.55
2019-02-04T18:18:27.122Z,12.50
2019-02-04T18:20:55.779Z,10.30
2019-02-04T18:23:24.422Z,10.18
2019-02-04T18:25:53.186Z,9.85
2019-02-04T18:28:21.750Z,9.75
2019-02-04T18:30:50.326Z,10.55
2019-02-04T18:33:18.893Z,11.60
2019-02-04T18:35:47.706Z,10.03
2019-02-04T18:38:16.528Z,10.38
2019-02-04T18:40:45.465Z,12.10
2019-02-04T18:43:14.050Z,13.10
2019-02-04T18:45:42.692Z,13.88
2019-02-04T18:48:11.366Z,12.00
2019-02-04T18:50:40.367Z,10.68
2019-02-04T18:53:09.047Z,10.85
2019-02-04T18:55:37.735Z,13.00
2019-02-04T18:58:06.492Z,11.20
2019-02-04T19:00:36.215Z,10.32
2019-02-04T19:03:16.802Z,13.20
2019-02-04T19:05:36.552Z,13.10
2019-02-04T19:08:06.329Z,13.05
2019-02-04T19:10:35.254Z,11.60
2019-02-04T19:13:03.986Z,13.58
2019-02-04T19:15:32.566Z,10.95
2019-02-04T19:18:04.506Z,12.70
2019-02-04T19:20:33.070Z,12.05
2019-02-04T19:23:01.661Z,13.65
2019-02-04T19:25:30.230Z,16.65
2019-02-04T19:27:58.819Z,12.73
2019-02-04T19:30:33.310Z,14.35
2019-02-04T19:33:02.101Z,12.53
2019-02-04T19:35:30.663Z,12.23
2019-02-04T19:37:59.255Z,23.85
2019-02-04T19:40:27.953Z,12.95
2019-02-04T19:42:56.589Z,16.10
2019-02-04T19:45:25.351Z,11.85
2019-02-04T19:47:54.274Z,13.75
2019-02-04T19:50:25.360Z,14.05
2019-02-04T19:52:54.033Z,14.43
2019-02-04T19:55:22.890Z,16.62
2019-02-04T19:57:51.542Z,10.68
2019-02-04T20:00:20.759Z,10.82
2019-02-04T20:02:49.895Z,11.68
2019-02-04T20:05:20.019Z,10.98
2019-02-04T20:07:49.117Z,12.95
2019-02-04T20:10:19.100Z,9.98
2019-02-04T20:12:48.085Z,9.00
2019-02-04T20:15:19.676Z,12.37
2019-02-04T20:17:48.478Z,13.35
2019-02-04T20:20:17.208Z,10.48
2019-02-04T20:22:46.034Z,9.40
2019-02-04T20:25:17.388Z,14.87
2019-02-04T20:27:46.046Z,13.80
2019-02-04T20:30:20.106Z,11.50
2019-02-04T20:32:48.909Z,10.15
2019-02-04T20:35:17.547Z,10.63
2019-02-04T20:37:46.358Z,9.18
2019-02-04T20:40:17.234Z,14.23
2019-02-04T20:42:45.865Z,13.10
2019-02-04T20:45:14.813Z,9.55
2019-02-04T20:47:43.586Z,10.10
2019-02-04T20:50:15.592Z,12.03
2019-02-04T20:52:44.177Z,10.75
2019-02-04T20:55:13.093Z,9.85
2019-02-04T20:57:41.690Z,10.32
2019-02-04T21:00:13.618Z,8.90
2019-02-04T21:02:42.214Z,15.10
2019-02-04T21:05:10.955Z,13.38
2019-02-04T21:07:39.612Z,10.85
2019-02-04T21:10:10.747Z,13.10
2019-02-04T21:12:39.350Z,11.10
2019-02-04T21:15:08.934Z,14.65
2019-02-04T21:17:37.655Z,10.43
2019-02-04T21:20:08.132Z,11.73
2019-02-04T21:22:36.755Z,7.28
2019-02-04T21:25:06.330Z,9.78
2019-02-04T21:27:35.358Z,9.15
2019-02-04T21:30:05.214Z,11.35
2019-02-04T21:32:33.831Z,10.28
2019-02-04T21:35:02.407Z,12.50
2019-02-04T21:37:31.220Z,10.38
2019-02-04T21:39:59.891Z,9.18
2019-02-04T21:42:28.505Z,10.65
2019-02-04T21:44:57.101Z,10.78
2019-02-04T21:47:25.835Z,11.10
2019-02-04T21:49:54.448Z,11.55
2019-02-04T21:52:23.033Z,8.73
2019-02-04T21:54:51.615Z,8.05
2019-02-04T21:57:20.241Z,9.95
2019-02-04T21:59:49.293Z,11.57
2019-02-04T22:02:18.112Z,10.20
2019-02-04T22:04:46.678Z,7.85
2019-02-04T22:07:15.265Z,8.30
2019-02-04T22:09:43.838Z,7.45
2019-02-04T22:12:12.429Z,9.90
2019-02-04T22:14:40.999Z,12.78
2019-02-04T22:17:09.908Z,12.35
2019-02-04T22:19:38.466Z,7.58
2019-02-04T22:22:07.114Z,6.62
2019-02-04T22:24:35.686Z,9.83
2019-02-04T22:27:04.248Z,7.80
2019-02-04T22:29:33.237Z,6.08
2019-02-04T22:32:01.833Z,7.25
2019-02-04T22:34:30.579Z,7.05
2019-02-04T22:36:59.735Z,8.78
2019-02-04T22:39:28.399Z,5.83
2019-02-04T22:41:57.025Z,5.95
2019-02-04T22:44:25.617Z,5.25
2019-02-04T22:46:54.225Z,8.68
2019-02-04T22:49:23.037Z,5.53
2019-02-04T22:51:51.739Z,5.55
2019-02-04T22:54:20.304Z,6.28
2019-02-04T22:56:48.872Z,7.12
2019-02-04T22:59:17.695Z,6.90
2019-02-04T23:01:52.261Z,7.45
2019-02-04T23:04:20.939Z,7.22
2019-02-04T23:06:49.598Z,7.40
2019-02-04T23:09:18.298Z,6.15
2019-02-04T23:11:46.938Z,10.63
2019-02-04T23:14:15.606Z,7.15
2019-02-04T23:16:44.168Z,5.28
2019-02-04T23:19:13.170Z,6.45
2019-02-04T23:21:41.749Z,6.53
2019-02-04T23:24:10.430Z,6.75
2019-02-04T23:26:39.013Z,6.28
2019-02-04T23:29:07.640Z,5.72
2019-02-04T23:31:36.515Z,5.12
2019-02-04T23:34:05.347Z,5.90
2019-02-04T23:36:34.083Z,4.72
2019-02-04T23:39:02.931Z,5.92
2019-02-04T23:41:31.503Z,5.85
2019-02-04T23:44:00.073Z,5.00
2019-02-04T23:46:28.638Z,8.28
2019-02-04T23:48:57.215Z,5.67
2019-02-04T23:51:26.138Z,9.03
2019-02-04T23:53:54.770Z,6.22
2019-02-04T23:56:23.380Z,6.25
2019-02-04T23:58:51.935Z,8.15
